Stover, Missouri
Current Conditions -  °F | °C
As of 4:53 PM on Thursday 23 Oct 2014 (Local Time) from KDMO Reporting Station
Overcast Overcast  
Wind Chill: 67°   Ceiling: 3800
Heat Index: 67°   Visibility: 10mi
Dew Point: 57°   Wind: 12mph
Humidity: 70%   Direction: 240°WSW
Pressure: 30.08"   Gusts: NA
Location:  38.44°N, 92.99°W
Report Text: KDMO 232153Z AUTO 24010KT 10SM FEW024 OVC038 19/14 A3008 RMK AO2 SLP183 T01940139
Loading
Personal Weather Stations






























Interactive Weather Map
Tropical Storm Tracking
New forecast layout! Learn more

10-Day Weather Forecast

Advertisements
Track Severe Weather on mobile